Cimetta, Switzerland
Current Conditions -  °F | °C
As of 7:50 PM on Tuesday 25 Nov 2014 (Local Time) from LSZL Reporting Station
Scattered Clouds Scattered Clouds  
Wind Chill: 48°   Ceiling: Unl
Heat Index: 48°   Visibility: 6mi
Dew Point: 46°   Wind: 0mph
Humidity: 93%   Direction: NA
Pressure: 30.09"   Gusts: NA
Location:  46.2°N, 8.8°E
Report Text: LSZL 251850Z AUTO 00000KT 9999NDV SCT074 09/08 Q1019 RMK BLU
Loading
Personal Weather Stations






























Interactive Weather Map New forecast layout! Learn more

10-Day Weather Forecast

Advertisements
Track Severe Weather on mobile